createdAt,value
2022-10-13T00:00:03.128Z,1.85
2022-10-13T00:02:29.539Z,1.77
2022-10-13T00:04:55.886Z,3.30
2022-10-13T00:07:22.207Z,2.33
2022-10-13T00:09:48.576Z,2.10
2022-10-13T00:12:15.008Z,2.38
2022-10-13T00:14:41.405Z,1.90
2022-10-13T00:17:07.810Z,2.63
2022-10-13T00:19:34.154Z,2.80
2022-10-13T00:22:01.227Z,2.83
2022-10-13T00:24:27.707Z,4.40
2022-10-13T00:26:54.157Z,4.32
2022-10-13T00:29:21.860Z,2.47
2022-10-13T00:31:48.225Z,2.80
2022-10-13T00:34:14.597Z,2.60
2022-10-13T00:36:40.947Z,3.00
2022-10-13T00:39:07.700Z,2.65
2022-10-13T00:41:34.031Z,3.05
2022-10-13T00:44:01.680Z,2.80
2022-10-13T00:46:29.401Z,2.45
2022-10-13T00:48:56.812Z,3.33
2022-10-13T00:51:25.837Z,4.57
2022-10-13T00:53:52.823Z,3.08
2022-10-13T00:56:19.765Z,2.28
2022-10-13T00:58:47.392Z,2.80
2022-10-13T01:01:14.183Z,2.83
2022-10-13T01:03:40.897Z,2.80
2022-10-13T01:06:08.018Z,2.63
2022-10-13T01:08:34.392Z,2.55
2022-10-13T01:11:19.649Z,2.80
2022-10-13T01:13:45.970Z,2.30
2022-10-13T01:16:24.406Z,2.55
2022-10-13T01:19:18.574Z,3.00
2022-10-13T01:22:03.777Z,2.90
2022-10-13T01:24:45.412Z,3.35
2022-10-13T01:27:30.637Z,2.47
2022-10-13T01:30:07.028Z,2.70
2022-10-13T01:32:33.454Z,2.60
2022-10-13T01:35:07.164Z,2.58
2022-10-13T01:37:51.635Z,2.90
2022-10-13T01:40:28.908Z,2.38
2022-10-13T01:42:58.509Z,2.95
2022-10-13T01:45:29.334Z,2.38
2022-10-13T01:47:55.987Z,2.72
2022-10-13T01:50:23.192Z,5.95
2022-10-13T01:52:50.298Z,4.05
2022-10-13T01:55:16.644Z,3.67
2022-10-13T01:57:44.977Z,3.40
2022-10-13T02:00:13.114Z,4.15
2022-10-13T02:02:39.427Z,3.78
2022-10-13T02:05:09.001Z,3.70
2022-10-13T02:07:42.869Z,3.33
2022-10-13T02:10:31.104Z,4.68
2022-10-13T02:13:03.568Z,3.53
2022-10-13T02:15:32.850Z,4.00
2022-10-13T02:18:00.809Z,4.30
2022-10-13T02:20:27.156Z,4.68
2022-10-13T02:22:56.005Z,4.05
2022-10-13T02:25:22.494Z,6.15
2022-10-13T02:27:49.602Z,6.68
2022-10-13T02:30:24.172Z,4.22
2022-10-13T02:32:50.669Z,4.60
2022-10-13T02:35:17.042Z,4.75
2022-10-13T02:37:43.436Z,4.60
2022-10-13T02:40:10.093Z,5.38
2022-10-13T02:42:36.461Z,4.95
2022-10-13T02:45:03.012Z,5.72
2022-10-13T02:47:29.449Z,4.30
2022-10-13T02:49:55.850Z,4.75
2022-10-13T02:52:22.410Z,7.20
2022-10-13T02:54:48.979Z,5.50
2022-10-13T02:57:15.433Z,4.88
2022-10-13T02:59:44.896Z,4.60
2022-10-13T03:02:11.220Z,5.30
2022-10-13T03:04:37.546Z,5.80
2022-10-13T03:07:04.287Z,4.95
2022-10-13T03:09:30.798Z,4.63
2022-10-13T03:11:57.581Z,5.50
2022-10-13T03:14:24.113Z,4.72
2022-10-13T03:16:50.437Z,4.57
2022-10-13T03:19:16.768Z,4.68
2022-10-13T03:21:43.142Z,4.32
2022-10-13T03:24:09.478Z,5.25
2022-10-13T03:26:35.926Z,4.70
2022-10-13T03:29:02.559Z,5.25
2022-10-13T03:31:29.110Z,4.80
2022-10-13T03:33:55.455Z,4.90
2022-10-13T03:36:21.878Z,4.45
2022-10-13T03:38:48.304Z,4.80
2022-10-13T03:41:17.558Z,4.70
2022-10-13T03:43:44.541Z,5.03
2022-10-13T03:46:12.489Z,4.43
2022-10-13T03:48:38.863Z,5.25
2022-10-13T03:51:06.306Z,5.22
2022-10-13T03:53:32.927Z,4.95
2022-10-13T03:55:59.277Z,4.47
2022-10-13T03:58:29.101Z,4.88
2022-10-13T04:00:55.919Z,4.45
2022-10-13T04:03:22.314Z,3.88
2022-10-13T04:05:48.856Z,6.13
2022-10-13T04:08:15.340Z,4.65
2022-10-13T04:10:41.733Z,4.22
2022-10-13T04:13:08.307Z,4.60
2022-10-13T04:15:41.069Z,4.40
2022-10-13T04:18:08.037Z,4.75
2022-10-13T04:20:38.660Z,4.50
2022-10-13T04:23:05.069Z,5.38
2022-10-13T04:25:31.528Z,3.85
2022-10-13T04:27:57.883Z,5.25
2022-10-13T04:30:24.222Z,4.63
2022-10-13T04:32:50.552Z,5.47
2022-10-13T04:35:16.978Z,5.35
2022-10-13T04:37:45.242Z,6.63
2022-10-13T04:40:11.838Z,5.35
2022-10-13T04:42:38.165Z,4.68
2022-10-13T04:45:05.050Z,4.45
2022-10-13T04:47:36.154Z,4.70
2022-10-13T04:50:03.749Z,5.53
2022-10-13T04:52:30.072Z,5.47
2022-10-13T04:54:56.398Z,4.65
2022-10-13T04:57:22.780Z,4.53
2022-10-13T04:59:49.096Z,4.20
2022-10-13T05:02:15.442Z,4.90
2022-10-13T05:04:41.826Z,4.55
2022-10-13T05:07:23.542Z,5.88
2022-10-13T05:09:51.103Z,4.20
2022-10-13T05:12:17.726Z,4.07
2022-10-13T05:14:44.292Z,4.70
2022-10-13T05:17:10.712Z,5.05
2022-10-13T05:19:37.040Z,4.20
2022-10-13T05:22:03.521Z,4.38
2022-10-13T05:24:39.148Z,4.38
2022-10-13T05:27:07.039Z,4.47
2022-10-13T05:29:33.574Z,4.07
2022-10-13T05:31:59.926Z,4.53
2022-10-13T05:34:29.198Z,4.13
2022-10-13T05:36:55.741Z,5.18
2022-10-13T05:39:22.522Z,5.10
2022-10-13T05:41:49.018Z,4.97
2022-10-13T05:44:17.406Z,4.30
2022-10-13T05:46:44.401Z,4.55
2022-10-13T05:49:11.122Z,4.15
2022-10-13T05:51:42.840Z,4.20
2022-10-13T05:54:12.944Z,4.25
2022-10-13T05:56:41.097Z,4.50
2022-10-13T05:59:08.492Z,3.92
2022-10-13T06:01:39.187Z,4.13
2022-10-13T06:04:08.159Z,4.45
2022-10-13T06:06:34.829Z,4.15
2022-10-13T06:09:01.424Z,4.45
2022-10-13T06:11:27.875Z,4.43
2022-10-13T06:13:54.237Z,3.97
2022-10-13T06:16:20.616Z,4.45
2022-10-13T06:18:46.982Z,3.78
2022-10-13T06:21:13.659Z,4.35
2022-10-13T06:23:40.050Z,4.78
2022-10-13T06:26:07.186Z,3.65
2022-10-13T06:28:33.568Z,4.65
2022-10-13T06:30:59.918Z,3.95
2022-10-13T06:33:26.337Z,3.67
2022-10-13T06:35:52.737Z,3.70
2022-10-13T06:38:19.724Z,4.03
2022-10-13T06:40:46.104Z,4.13
2022-10-13T06:43:12.456Z,3.67
2022-10-13T06:45:38.860Z,5.05
2022-10-13T06:48:05.242Z,3.33
2022-10-13T06:50:32.370Z,3.80
2022-10-13T06:52:58.730Z,3.53
2022-10-13T06:55:25.079Z,3.40
2022-10-13T06:57:51.464Z,3.35
2022-10-13T07:00:18.009Z,2.88
2022-10-13T07:02:44.363Z,3.15
2022-10-13T07:05:10.707Z,4.43
2022-10-13T07:07:37.051Z,3.50
2022-10-13T07:10:03.605Z,3.47
2022-10-13T07:12:29.933Z,3.20
2022-10-13T07:14:56.329Z,3.55
2022-10-13T07:17:23.031Z,2.92
2022-10-13T07:19:49.798Z,2.55
2022-10-13T07:22:16.306Z,2.97
2022-10-13T07:24:45.665Z,2.85
2022-10-13T07:27:12.202Z,3.47
2022-10-13T07:29:38.585Z,2.85
2022-10-13T07:32:05.242Z,3.30
2022-10-13T07:34:31.669Z,3.17
2022-10-13T07:36:58.017Z,3.15
2022-10-13T07:39:24.395Z,2.50
2022-10-13T07:41:51.414Z,2.80
2022-10-13T07:44:19.887Z,2.80
2022-10-13T07:46:46.343Z,3.30
2022-10-13T07:49:16.300Z,2.95
2022-10-13T07:51:44.420Z,2.58
2022-10-13T07:54:11.047Z,3.35
2022-10-13T07:56:37.542Z,3.65
2022-10-13T07:59:06.392Z,2.92
2022-10-13T08:01:32.825Z,2.75
2022-10-13T08:03:59.444Z,3.05
2022-10-13T08:06:25.842Z,3.88
2022-10-13T08:08:52.714Z,2.88
2022-10-13T08:11:19.222Z,2.80
2022-10-13T08:13:49.408Z,2.85
2022-10-13T08:16:18.180Z,3.35
2022-10-13T08:18:45.124Z,3.78
2022-10-13T08:24:03.030Z,2.70
2022-10-13T08:26:29.436Z,2.92
2022-10-13T08:29:20.325Z,3.00
2022-10-13T08:31:42.949Z,3.08
2022-10-13T08:34:10.322Z,3.15
2022-10-13T08:36:36.960Z,3.13
2022-10-13T08:39:03.580Z,3.25
2022-10-13T08:41:31.450Z,2.90
2022-10-13T08:44:49.558Z,2.85
2022-10-13T08:46:54.080Z,3.40
2022-10-13T08:49:20.444Z,3.22
2022-10-13T08:51:46.857Z,2.70
2022-10-13T08:54:15.491Z,3.28
2022-10-13T08:56:43.326Z,2.90
2022-10-13T08:59:13.214Z,2.92
2022-10-13T09:01:41.959Z,2.92
2022-10-13T09:04:23.935Z,2.67
2022-10-13T09:06:55.481Z,4.88
2022-10-13T09:09:22.113Z,2.50
2022-10-13T09:11:50.363Z,2.70
2022-10-13T09:14:19.968Z,3.08
2022-10-13T09:16:46.414Z,2.63
2022-10-13T09:19:14.325Z,2.70
2022-10-13T09:21:40.994Z,2.22
2022-10-13T09:24:08.480Z,2.50
2022-10-13T09:26:38.931Z,2.67
2022-10-13T09:29:09.848Z,2.35
2022-10-13T09:34:24.106Z,2.75
2022-10-13T09:37:01.244Z,2.13
2022-10-13T09:39:27.999Z,2.65
2022-10-13T09:42:09.230Z,3.45
2022-10-13T09:44:35.748Z,2.15
2022-10-13T09:47:03.757Z,3.10
2022-10-13T09:49:38.187Z,3.13
2022-10-13T09:52:06.664Z,3.28
2022-10-13T09:54:51.173Z,2.00
2022-10-13T09:57:39.943Z,3.20
2022-10-13T10:00:23.102Z,2.35
2022-10-13T10:02:58.471Z,2.75
2022-10-13T10:05:26.559Z,2.25
2022-10-13T10:07:53.139Z,2.55
2022-10-13T10:10:29.419Z,2.30
2022-10-13T10:12:55.797Z,2.45
2022-10-13T10:15:25.607Z,2.75
2022-10-13T10:17:54.587Z,2.35
2022-10-13T10:20:24.307Z,2.38
2022-10-13T10:23:04.926Z,2.22
2022-10-13T10:25:39.861Z,2.60
2022-10-13T10:28:41.707Z,2.50
2022-10-13T10:31:19.313Z,2.45
2022-10-13T10:33:45.693Z,2.92
2022-10-13T10:36:17.014Z,4.35
2022-10-13T10:38:43.385Z,3.00
2022-10-13T10:41:28.181Z,2.63
2022-10-13T10:44:02.702Z,2.08
2022-10-13T10:46:31.001Z,2.65
2022-10-13T10:48:59.592Z,2.50
2022-10-13T10:51:31.086Z,2.40
2022-10-13T10:54:06.277Z,2.80
2022-10-13T10:56:40.611Z,2.70
2022-10-13T10:59:26.386Z,2.70
2022-10-13T11:02:04.554Z,2.13
2022-10-13T11:04:30.898Z,2.50
2022-10-13T11:06:57.296Z,2.10
2022-10-13T11:09:42.344Z,3.10
2022-10-13T11:12:21.506Z,2.15
2022-10-13T11:15:02.155Z,2.47
2022-10-13T11:17:32.456Z,2.42
2022-10-13T11:19:59.156Z,2.45
2022-10-13T11:22:28.831Z,2.63
2022-10-13T11:24:55.244Z,2.40
2022-10-13T11:27:38.368Z,2.88
2022-10-13T11:30:05.284Z,2.45
2022-10-13T11:32:41.592Z,2.42
2022-10-13T11:35:08.201Z,3.00
2022-10-13T11:38:05.970Z,2.70
2022-10-13T11:40:36.245Z,2.85
2022-10-13T11:43:17.965Z,2.78
2022-10-13T11:45:53.331Z,2.90
2022-10-13T11:48:38.603Z,2.88
2022-10-13T11:51:16.379Z,2.38
2022-10-13T11:54:01.904Z,2.22
2022-10-13T11:56:39.584Z,2.65
2022-10-13T11:59:18.510Z,2.72
2022-10-13T12:01:45.190Z,2.28
2022-10-13T12:04:14.951Z,3.17
2022-10-13T12:06:42.184Z,2.50
2022-10-13T12:09:19.298Z,2.20
2022-10-13T12:11:45.917Z,2.38
2022-10-13T12:14:22.421Z,3.17
2022-10-13T12:19:27.898Z,2.67
2022-10-13T12:21:55.967Z,2.45
2022-10-13T12:24:23.777Z,2.95
2022-10-13T12:26:50.913Z,2.53
2022-10-13T12:29:17.842Z,2.47
2022-10-13T12:31:48.428Z,2.95
2022-10-13T12:34:19.788Z,3.38
2022-10-13T12:36:50.810Z,2.65
2022-10-13T12:39:18.073Z,2.75
2022-10-13T12:41:45.824Z,2.55
2022-10-13T12:44:17.919Z,2.78
2022-10-13T12:46:45.701Z,2.60
2022-10-13T12:49:35.527Z,2.47
2022-10-13T12:52:31.278Z,2.78
2022-10-13T12:54:59.399Z,2.80
2022-10-13T12:57:35.092Z,3.47
2022-10-13T13:00:05.656Z,3.63
2022-10-13T13:02:32.989Z,4.00
2022-10-13T13:04:59.580Z,3.85
2022-10-13T13:07:33.353Z,3.42
2022-10-13T13:10:21.167Z,4.28
2022-10-13T13:12:48.861Z,3.80
2022-10-13T13:15:18.351Z,3.72
2022-10-13T13:17:57.842Z,4.75
2022-10-13T13:20:32.858Z,4.35
2022-10-13T13:23:02.020Z,4.13
2022-10-13T13:25:28.523Z,4.10
2022-10-13T13:27:55.109Z,4.45
2022-10-13T13:30:22.267Z,3.88
2022-10-13T13:32:48.827Z,4.05
2022-10-13T13:35:15.439Z,3.65
2022-10-13T13:37:44.469Z,4.68
2022-10-13T13:40:15.032Z,4.68
2022-10-13T13:42:41.440Z,3.80
2022-10-13T13:45:08.237Z,3.80
2022-10-13T13:47:34.707Z,3.78
2022-10-13T13:50:01.257Z,4.35
2022-10-13T13:52:27.644Z,3.50
2022-10-13T13:54:56.125Z,3.75
2022-10-13T13:57:22.774Z,3.72
2022-10-13T13:59:49.318Z,5.07
2022-10-13T14:02:17.279Z,5.03
2022-10-13T14:04:44.092Z,3.20
2022-10-13T14:07:10.740Z,3.08
2022-10-13T14:09:37.198Z,3.30
2022-10-13T14:12:03.685Z,3.17
2022-10-13T14:14:33.434Z,3.55
2022-10-13T14:17:00.498Z,3.30
2022-10-13T14:19:26.954Z,3.33
2022-10-13T14:21:53.510Z,3.97
2022-10-13T14:24:19.952Z,4.00
2022-10-13T14:26:46.406Z,3.45
2022-10-13T14:29:13.690Z,3.25
2022-10-13T14:31:43.285Z,3.10
2022-10-13T14:34:09.800Z,3.38
2022-10-13T14:36:36.313Z,3.50
2022-10-13T14:39:03.069Z,3.40
2022-10-13T14:41:29.496Z,2.90
2022-10-13T14:43:56.582Z,3.30
2022-10-13T14:46:23.322Z,2.95
2022-10-13T14:48:49.796Z,3.00
2022-10-13T14:51:16.623Z,3.10
2022-10-13T14:53:44.623Z,4.18
2022-10-13T14:56:24.275Z,4.03
2022-10-13T14:58:54.980Z,3.88
2022-10-13T15:01:21.881Z,3.30
2022-10-13T15:03:48.636Z,3.85
2022-10-13T15:06:16.327Z,3.97
2022-10-13T15:08:42.896Z,3.20
2022-10-13T15:11:09.840Z,3.40
2022-10-13T15:13:36.752Z,3.00
2022-10-13T15:16:06.471Z,3.20
2022-10-13T15:18:33.622Z,3.40
2022-10-13T15:21:00.048Z,2.97
2022-10-13T15:23:27.059Z,4.03
2022-10-13T15:25:57.998Z,3.08
2022-10-13T15:30:51.040Z,3.40
2022-10-13T15:33:20.693Z,3.63
2022-10-13T15:35:50.974Z,2.38
2022-10-13T15:38:18.273Z,3.40
2022-10-13T15:40:44.779Z,3.08
2022-10-13T15:43:11.818Z,3.35
2022-10-13T15:45:38.612Z,3.85
2022-10-13T15:48:05.672Z,3.25
2022-10-13T15:50:32.117Z,3.67
2022-10-13T15:52:59.141Z,3.40
2022-10-13T15:55:25.772Z,3.38
2022-10-13T15:57:52.264Z,3.50
2022-10-13T16:00:18.780Z,3.60
2022-10-13T16:02:45.564Z,3.35
2022-10-13T16:05:12.825Z,3.22
2022-10-13T16:07:41.982Z,3.42
2022-10-13T16:10:09.179Z,3.00
2022-10-13T16:12:35.735Z,3.30
2022-10-13T16:15:03.510Z,3.45
2022-10-13T16:17:29.887Z,2.92
2022-10-13T16:19:56.486Z,3.47
2022-10-13T16:22:23.182Z,3.45
2022-10-13T16:24:51.946Z,3.58
2022-10-13T16:27:18.710Z,3.33
2022-10-13T16:29:45.075Z,3.28
2022-10-13T16:32:11.505Z,3.20
2022-10-13T16:34:38.063Z,3.90
2022-10-13T16:37:04.516Z,3.78
2022-10-13T16:39:30.952Z,4.28
2022-10-13T16:41:57.383Z,3.72
2022-10-13T16:44:23.825Z,3.47
2022-10-13T16:46:52.384Z,3.20
2022-10-13T16:49:18.768Z,3.08
2022-10-13T16:51:45.348Z,3.65
2022-10-13T16:54:11.826Z,4.00
2022-10-13T16:56:38.261Z,3.42
2022-10-13T16:59:06.061Z,3.90
2022-10-13T17:01:33.304Z,3.92
2022-10-13T17:04:00.079Z,3.95
2022-10-13T17:06:27.521Z,3.88
2022-10-13T17:08:54.005Z,3.70
2022-10-13T17:11:22.427Z,5.22
2022-10-13T17:13:49.402Z,3.92
2022-10-13T17:16:16.135Z,4.35
2022-10-13T17:18:42.718Z,4.10
2022-10-13T17:21:10.566Z,4.93
2022-10-13T17:23:37.612Z,4.00
2022-10-13T17:26:05.498Z,3.97
2022-10-13T17:28:32.471Z,4.40
2022-10-13T17:31:12.019Z,4.57
2022-10-13T17:33:39.070Z,4.60
2022-10-13T17:36:07.306Z,4.43
2022-10-13T17:38:33.751Z,5.28
2022-10-13T17:41:02.618Z,4.55
2022-10-13T17:43:29.661Z,4.15
2022-10-13T17:46:07.473Z,4.72
2022-10-13T17:48:43.171Z,4.90
2022-10-13T17:51:10.906Z,5.03
2022-10-13T17:53:38.074Z,4.68
2022-10-13T17:56:05.924Z,4.72
2022-10-13T17:58:35.012Z,4.28
2022-10-13T18:01:13.245Z,4.72
2022-10-13T18:03:44.199Z,4.90
2022-10-13T18:06:10.827Z,5.22
2022-10-13T18:08:37.237Z,5.13
2022-10-13T18:11:08.687Z,4.70
2022-10-13T18:13:35.508Z,4.68
2022-10-13T18:16:03.451Z,5.05
2022-10-13T18:18:29.981Z,4.70
2022-10-13T18:20:56.395Z,5.50
2022-10-13T18:23:22.781Z,4.30
2022-10-13T18:25:50.127Z,5.72
2022-10-13T18:28:16.684Z,5.25
2022-10-13T18:30:43.189Z,5.35
2022-10-13T18:33:09.662Z,4.63
2022-10-13T18:35:36.022Z,5.72
2022-10-13T18:38:02.548Z,4.95
2022-10-13T18:40:29.029Z,4.57
2022-10-13T18:42:56.092Z,4.50
2022-10-13T18:45:22.739Z,4.35
2022-10-13T18:47:50.622Z,4.28
2022-10-13T18:50:17.062Z,3.83
2022-10-13T18:52:43.479Z,4.15
2022-10-13T18:55:12.313Z,4.50
2022-10-13T18:57:39.231Z,3.97
2022-10-13T19:00:06.993Z,4.10
2022-10-13T19:02:34.584Z,4.28
2022-10-13T19:05:01.022Z,3.70
2022-10-13T19:07:27.369Z,4.43
2022-10-13T19:09:54.366Z,4.15
2022-10-13T19:12:23.150Z,4.20
2022-10-13T19:14:49.546Z,3.80
2022-10-13T19:17:16.054Z,5.05
2022-10-13T19:19:42.953Z,4.22
2022-10-13T19:22:10.170Z,7.03
2022-10-13T19:24:36.701Z,5.38
2022-10-13T19:27:03.329Z,4.40
2022-10-13T19:29:30.568Z,3.92
2022-10-13T19:31:56.982Z,3.88
2022-10-13T19:34:23.557Z,4.50
2022-10-13T19:36:50.088Z,4.40
2022-10-13T19:39:20.190Z,4.25
2022-10-13T19:41:47.385Z,3.97
2022-10-13T19:44:14.611Z,4.68
2022-10-13T19:46:44.692Z,4.18
2022-10-13T19:49:12.214Z,4.80
2022-10-13T19:51:41.606Z,5.45
2022-10-13T19:54:08.690Z,4.72
2022-10-13T19:56:35.578Z,5.45
2022-10-13T19:59:04.227Z,5.10
2022-10-13T20:01:30.982Z,5.20
2022-10-13T20:03:57.359Z,4.38
2022-10-13T20:06:23.722Z,6.43
2022-10-13T20:08:50.205Z,5.32
2022-10-13T20:11:23.423Z,5.13
2022-10-13T20:13:50.387Z,5.13
2022-10-13T20:16:18.103Z,5.50
2022-10-13T20:18:44.467Z,5.15
2022-10-13T20:21:12.369Z,5.88
2022-10-13T20:23:40.649Z,4.82
2022-10-13T20:26:08.493Z,5.63
2022-10-13T20:28:39.232Z,4.35
2022-10-13T20:31:12.794Z,4.60
2022-10-13T20:33:39.556Z,5.00
2022-10-13T20:36:06.849Z,5.57
2022-10-13T20:38:35.827Z,5.20
2022-10-13T20:41:10.352Z,5.47
2022-10-13T20:43:37.169Z,4.43
2022-10-13T20:46:04.759Z,5.10
2022-10-13T20:48:51.101Z,5.70
2022-10-13T20:51:19.500Z,6.25
2022-10-13T20:53:46.527Z,6.22
2022-10-13T20:56:15.563Z,5.82
2022-10-13T20:58:42.325Z,5.30
2022-10-13T21:01:08.847Z,6.38
2022-10-13T21:03:35.240Z,6.78
2022-10-13T21:06:02.924Z,6.70
2022-10-13T21:08:29.330Z,5.93
2022-10-13T21:10:55.801Z,6.03
2022-10-13T21:13:22.183Z,6.20
2022-10-13T21:15:48.773Z,6.22
2022-10-13T21:18:16.171Z,5.85
2022-10-13T21:20:42.543Z,6.30
2022-10-13T21:23:10.434Z,5.78
2022-10-13T21:25:37.233Z,6.47
2022-10-13T21:28:03.713Z,7.75
2022-10-13T21:30:30.722Z,6.55
2022-10-13T21:32:57.257Z,7.53
2022-10-13T21:35:23.793Z,8.50
2022-10-13T21:37:50.193Z,7.22
2022-10-13T21:40:16.661Z,7.38
2022-10-13T21:42:45.890Z,7.18
2022-10-13T21:45:12.228Z,6.93
2022-10-13T21:47:38.576Z,7.20
2022-10-13T21:50:05.365Z,7.82
2022-10-13T21:52:34.390Z,8.65
2022-10-13T21:55:00.764Z,6.88
2022-10-13T21:57:27.131Z,7.80
2022-10-13T21:59:56.591Z,8.73
2022-10-13T22:02:22.920Z,8.38
2022-10-13T22:04:49.356Z,9.50
2022-10-13T22:07:15.716Z,8.40
2022-10-13T22:09:42.066Z,8.88
2022-10-13T22:12:09.228Z,10.80
2022-10-13T22:14:35.593Z,9.50
2022-10-13T22:17:04.552Z,9.68
2022-10-13T22:19:30.942Z,10.48
2022-10-13T22:21:57.278Z,10.93
2022-10-13T22:24:23.620Z,10.68
2022-10-13T22:26:50.428Z,10.38
2022-10-13T22:29:18.667Z,10.30
2022-10-13T22:31:45.081Z,10.45
2022-10-13T22:34:15.101Z,10.32
2022-10-13T22:36:44.760Z,10.73
2022-10-13T22:39:11.830Z,10.13
2022-10-13T22:41:38.228Z,9.98
2022-10-13T22:44:04.638Z,11.15
2022-10-13T22:46:32.588Z,10.93
2022-10-13T22:48:59.232Z,10.35
2022-10-13T22:51:30.462Z,10.90
2022-10-13T22:53:57.048Z,10.63
2022-10-13T22:56:24.775Z,10.82
2022-10-13T22:58:58.706Z,10.15
2022-10-13T23:01:27.658Z,9.82
2022-10-13T23:03:55.302Z,11.85
2022-10-13T23:06:23.025Z,10.38
2022-10-13T23:08:49.537Z,11.20
2022-10-13T23:11:16.611Z,11.77
2022-10-13T23:13:43.136Z,11.60
2022-10-13T23:16:11.181Z,10.50
2022-10-13T23:18:40.587Z,10.27
2022-10-13T23:21:07.937Z,12.10
2022-10-13T23:23:34.692Z,10.38
2022-10-13T23:26:02.303Z,10.07
2022-10-13T23:28:29.741Z,11.40
2022-10-13T23:30:58.450Z,11.23
2022-10-13T23:33:24.872Z,13.00
2022-10-13T23:35:58.350Z,12.23
2022-10-13T23:38:25.478Z,10.93
2022-10-13T23:40:52.218Z,11.05
2022-10-13T23:43:19.003Z,12.23
2022-10-13T23:45:45.581Z,12.38
2022-10-13T23:48:11.996Z,11.50
2022-10-13T23:50:38.432Z,12.80
2022-10-13T23:53:04.863Z,11.93
2022-10-13T23:55:31.247Z,11.82
2022-10-13T23:57:57.570Z,13.55
